Lodge, Illinois
Current Conditions -  °F | °C
As of 5:53 PM on Wednesday 26 Nov 2014 (Local Time) from KCMI Reporting Station
Overcast Overcast  
Wind Chill: 23°   Ceiling: 6500
Heat Index: 29°   Visibility: 9mi
Dew Point: 24°   Wind: 6mph
Humidity: 82%   Direction: 40°NE
Pressure: 30.08"   Gusts: NA
Location:  40.0093°N, 88.5358°W
Report Text: KCMI 262353Z 04005KT 9SM OVC065 M02/M04 A3008 RMK AO2 SLP195 T10171044 11017 21028 51006 $
Loading
Personal Weather Stations






























Interactive Weather Map New forecast layout! Learn more

10-Day Weather Forecast

Advertisements
Track Severe Weather on mobile